EGNH Airport Information

Runway Information
Runway 07 Length 2621 ft width 98 ft
Elevation 33 ft Threshold 126 ft Heading 68
Runway 25 Length 2621 ft Width 98 ft
Elevation 29 ft Threshold 325 ft Heading 248
Runway 10 Length 6132 ft width 151 ft
Elevation 32 ft Threshold 0 ft Heading 95
Runway 28 Length 6132 ft Width 151 ft
Elevation 28 ft Threshold 0 ft Heading 275
Runway 13 Length 3533 ft width 75 ft
Elevation 32 ft Threshold 478 ft Heading 127
Runway 31 Length 3533 ft Width 75 ft
Elevation 30 ft Threshold 0 ft Heading 307
Airport Frequencies
Type APP Name APP Frequency 119.95 MHZ
Type ATIS Name ATIS Frequency 121.75 MHZ
Type TWR Name TWR Frequency 118.4 MHZ
Airport Navaids
Airport Weather Information & NOTAM
ADDS - METARS form results

(0958 UTC 08 December 2019)
Data provider http://aviationweather.gov/metar/data/
 
METAR text: EGNH 080950Z 26030KT 9000 VCSH SCT026 BKN040 08/04 Q0992
Conditions at: EGNH (BLACKPOOL AIRPOR, GB) observed 0950 UTC 08 December 2019
Temperature: 8.0°C (46°F)
Dewpoint: 4.0°C (39°F) [RH = 76%]
Pressure (altimeter): 29.29 inches Hg (992.0 mb)
Winds: from the W (260 degrees) at 34 MPH (30 knots; 15.4 m/s)
Visibility: 6 miles ( 9 km)
Ceiling: 4000 feet AGL
Clouds: scattered clouds at 2600 feet AGL
broken clouds at 4000 feet AGL
Weather: VCSH  (showers in vicinity)

METAR text: EGNH 080920Z 27032G42KT 9000 VCSH SCT018 08/04 Q0992
Conditions at: EGNH (BLACKPOOL AIRPOR, GB) observed 0920 UTC 08 December 2019
Temperature: 8.0°C (46°F)
Dewpoint: 4.0°C (39°F) [RH = 76%]
Pressure (altimeter): 29.29 inches Hg (992.0 mb)
Winds: from the W (270 degrees) at 37 MPH (32 knots; 16.5 m/s)
gusting to 48 MPH (42 knots; 21.6 m/s)
Visibility: 6 miles ( 9 km)
Ceiling: at least 12,000 feet AGL
Clouds: scattered clouds at 1800 feet AGL
Weather: VCSH  (showers in vicinity)

Forecast for: EGNH (BLACKPOOL AIRPOR, GB)
Text: TAF EGNH 080806Z 0809/0818 25020G30KT 9999 SCT025
Forecast period: 0900 to 1800 UTC 08 December 2019
Forecast type: FROM: standard forecast or significant change
Winds: from the WSW (250 degrees) at 23 MPH (20 knots; 10.3 m/s)
gusting to 34 MPH (30 knots; 15.4 m/s)
Visibility: 6 or more miles 10+ km)
Ceiling: at least 12,000 feet AGL
Clouds: scattered clouds at 2500 feet AGL
Weather: no significant weather forecast for this period
Text: TEMPO 0809/0818 23025G40KT 7000 SHRA
Forecast period: 0900 to 1800 UTC 08 December 2019
Forecast type: TEMPORARY: The following changes expected for less than half the time period
Winds: from the SW (230 degrees) at 29 MPH (25 knots; 12.9 m/s)
gusting to 46 MPH (40 knots; 20.6 m/s)
Visibility: 4 miles (7 km)
Ceiling: unknown
Clouds: missing
Weather: SHRA  (rain showers)
Text: PROB30
Forecast period: 0900 to 1800 UTC 08 December 2019
Forecast type: TEMPORARY: The following changes expected for less than half the time period
Visibility: 2.49 miles (4.01 km)
Ceiling: unknown
Clouds: missing
Weather: +SHRA  (heavy rain showers)